Time;durP1;ratioP1;P1;durP2;ratioP2;P2;SDS_P1;SDS_P2;PMS_P1;PMS_P2;Temp;Humidity;BMP_temperature;BMP_pressure;BME280_temperature;BME280_humidity;BME280_pressure;Samples;Min_cycle;Max_cycle;Signal;HPM_P1;HPM_P2
2022/08/09 00:01:33;;;;;;;7.68;4.88;;;16.70;94.10;;;;;;5074283;28;20058;-48
2022/08/09 00:03:59;;;;;;;10.07;5.78;;;16.70;94.10;;;;;;5078562;28;20087;-50
2022/08/09 00:06:26;;;;;;;8.35;5.75;;;16.70;94.30;;;;;;5087825;28;20123;-46
2022/08/09 00:08:54;;;;;;;5.50;3.95;;;16.60;94.40;;;;;;5072196;28;20147;-49
2022/08/09 00:11:21;;;;;;;7.75;5.25;;;16.60;94.10;;;;;;5068021;28;20063;-48
2022/08/09 00:13:48;;;;;;;5.18;4.53;;;16.60;94.30;;;;;;5055764;28;20041;-49
2022/08/09 00:16:14;;;;;;;7.45;5.28;;;16.50;94.40;;;;;;5069868;28;20250;-49
2022/08/09 00:18:42;;;;;;;9.70;5.25;;;16.50;94.60;;;;;;5075270;28;20094;-48
2022/08/09 00:21:09;;;;;;;6.53;4.45;;;16.50;94.70;;;;;;5074216;28;20531;-51
2022/08/09 00:23:36;;;;;;;7.55;4.47;;;16.40;94.80;;;;;;5075095;28;20045;-50
2022/08/09 00:26:03;;;;;;;6.88;4.50;;;16.40;94.90;;;;;;5062366;28;20120;-51
2022/08/09 00:28:30;;;;;;;5.68;4.30;;;16.30;95.20;;;;;;5072696;28;20450;-50
2022/08/09 00:30:57;;;;;;;5.95;4.15;;;16.30;95.20;;;;;;5067702;28;20531;-51
2022/08/09 00:33:25;;;;;;;6.10;4.50;;;16.30;95.30;;;;;;5063352;28;20094;-48
2022/08/09 00:35:53;;;;;;;6.15;3.25;;;16.20;95.40;;;;;;5090893;28;20510;-46
2022/08/09 00:38:20;;;;;;;8.35;5.22;;;16.20;95.30;;;;;;5071061;28;20083;-50
2022/08/09 00:40:47;;;;;;;6.72;4.55;;;16.20;95.60;;;;;;5074246;28;20572;-48
2022/08/09 00:43:14;;;;;;;7.07;4.10;;;16.10;95.50;;;;;;5090582;28;20548;-52
2022/08/09 00:45:40;;;;;;;5.45;3.75;;;16.10;95.60;;;;;;5068315;28;20132;-50
2022/08/09 00:48:07;;;;;;;7.57;4.90;;;16.10;95.50;;;;;;5060113;28;20136;-49
2022/08/09 00:50:34;;;;;;;5.20;4.50;;;16.00;95.60;;;;;;5071474;28;20132;-49
2022/08/09 00:53:02;;;;;;;5.80;4.45;;;16.00;95.80;;;;;;5059545;28;20048;-48
2022/08/09 00:55:29;;;;;;;9.60;4.88;;;16.00;95.90;;;;;;5065443;28;20048;-49
2022/08/09 00:57:56;;;;;;;7.38;5.00;;;16.00;95.80;;;;;;5071065;28;20053;-49
2022/08/09 01:00:22;;;;;;;6.18;4.60;;;15.90;96.00;;;;;;5071638;28;20088;-48
2022/08/09 01:02:50;;;;;;;4.22;3.80;;;15.90;96.00;;;;;;5054023;28;20110;-51
2022/08/09 01:05:19;;;;;;;5.13;4.55;;;15.90;96.00;;;;;;5071258;28;20121;-52
2022/08/09 01:07:51;;;;;;;6.15;3.83;;;15.80;96.00;;;;;;5063933;28;20094;-50
2022/08/09 01:10:25;;;;;;;7.53;4.90;;;15.80;95.70;;;;;;5054676;28;20120;-51
2022/08/09 01:12:59;;;;;;;6.88;4.85;;;15.80;95.60;;;;;;5070545;28;20123;-48
2022/08/09 01:15:27;;;;;;;4.90;4.40;;;15.80;95.80;;;;;;5073564;28;20459;-50
2022/08/09 01:17:55;;;;;;;6.95;4.25;;;15.70;95.90;;;;;;5071709;28;20128;-49
2022/08/09 01:20:24;;;;;;;9.38;4.28;;;15.70;96.00;;;;;;5071503;28;20136;-50
2022/08/09 01:23:15;;;;;;;5.60;4.43;;;15.70;95.90;;;;;;5055324;28;20099;-52
2022/08/09 01:25:57;;;;;;;7.22;4.38;;;15.70;95.80;;;;;;5053591;28;20088;-54
2022/08/09 01:28:25;;;;;;;6.57;4.97;;;15.60;96.00;;;;;;5068714;28;20452;-53
2022/08/09 01:30:52;;;;;;;5.80;4.47;;;15.50;96.30;;;;;;5070375;28;20140;-49
2022/08/09 01:33:19;;;;;;;10.05;5.28;;;15.60;96.50;;;;;;5073966;28;20088;-53
2022/08/09 01:35:48;;;;;;;5.35;4.00;;;15.50;96.50;;;;;;5060407;28;20140;-48
2022/08/09 01:38:17;;;;;;;6.93;4.13;;;15.50;96.20;;;;;;5069183;28;20053;-50
2022/08/09 01:40:49;;;;;;;7.68;5.32;;;15.50;96.30;;;;;;5070344;28;20131;-48
2022/08/09 01:43:16;;;;;;;8.10;5.43;;;15.50;96.60;;;;;;5072980;28;20075;-54
2022/08/09 01:45:45;;;;;;;6.55;5.03;;;15.50;96.70;;;;;;5073430;28;20123;-51
2022/08/09 01:48:11;;;;;;;7.95;5.72;;;15.40;96.70;;;;;;5073569;28;20052;-47
2022/08/09 01:50:38;;;;;;;6.15;5.55;;;15.40;97.00;;;;;;5070874;28;20127;-45
2022/08/09 01:53:05;;;;;;;6.43;5.15;;;15.40;97.40;;;;;;5064886;28;20140;-51
2022/08/09 01:55:32;;;;;;;6.15;5.38;;;15.30;97.00;;;;;;5067914;28;20080;-51
2022/08/09 01:57:58;;;;;;;6.43;4.72;;;15.30;97.00;;;;;;5073742;28;20098;-52
2022/08/09 02:00:25;;;;;;;5.78;5.18;;;15.30;96.90;;;;;;5071234;28;20462;-53
2022/08/09 02:02:53;;;;;;;6.50;5.18;;;15.20;96.90;;;;;;5068612;28;20480;-46
2022/08/09 02:05:22;;;;;;;7.07;5.18;;;15.30;97.00;;;;;;5065501;28;20127;-49
2022/08/09 02:07:51;;;;;;;6.75;4.68;;;15.20;97.00;;;;;;5071160;28;20136;-51
2022/08/09 02:10:19;;;;;;;7.35;5.03;;;15.20;96.80;;;;;;5072174;28;20140;-48
2022/08/09 02:12:46;;;;;;;6.65;4.78;;;15.10;96.80;;;;;;5070511;28;20052;-49
2022/08/09 02:15:13;;;;;;;6.47;5.60;;;15.10;97.30;;;;;;5072032;28;20076;-51
2022/08/09 02:17:40;;;;;;;5.47;4.78;;;15.10;97.00;;;;;;5071344;28;20076;-47
2022/08/09 02:20:09;;;;;;;6.68;5.55;;;15.10;96.80;;;;;;5071630;28;20131;-50
2022/08/09 02:22:36;;;;;;;7.07;5.43;;;15.10;96.70;;;;;;5070233;28;20133;-52
2022/08/09 02:25:04;;;;;;;8.77;6.05;;;15.10;96.70;;;;;;5071918;28;20250;-48
2022/08/09 02:27:31;;;;;;;7.20;5.78;;;15.00;96.80;;;;;;5070879;28;20463;-50
2022/08/09 02:29:58;;;;;;;5.95;4.90;;;14.90;96.60;;;;;;5066862;28;20143;-48
2022/08/09 02:32:26;;;;;;;8.02;6.40;;;15.00;96.50;;;;;;5070750;28;20464;-47
2022/08/09 02:34:55;;;;;;;8.73;5.15;;;15.00;96.60;;;;;;5072136;28;20125;-49
2022/08/09 02:37:24;;;;;;;6.28;5.38;;;14.90;96.60;;;;;;5071686;28;20091;-50
2022/08/09 02:39:55;;;;;;;6.88;5.30;;;14.90;96.70;;;;;;5064810;28;20510;-48
2022/08/09 02:42:23;;;;;;;10.15;6.50;;;14.90;96.70;;;;;;5066099;28;20484;-47
2022/08/09 02:44:52;;;;;;;7.90;5.50;;;14.90;96.80;;;;;;5071128;28;20132;-51
2022/08/09 02:47:20;;;;;;;7.50;5.10;;;14.90;96.70;;;;;;5070623;28;20448;-48
2022/08/09 02:49:50;;;;;;;8.07;6.03;;;14.90;96.70;;;;;;5071433;28;20560;-51
2022/08/09 02:52:17;;;;;;;6.90;5.32;;;14.80;96.90;;;;;;5071821;28;20102;-50
2022/08/09 02:54:45;;;;;;;6.22;5.63;;;14.80;97.00;;;;;;5072061;28;20541;-48
2022/08/09 02:57:11;;;;;;;6.25;5.32;;;14.80;97.20;;;;;;5072685;28;20095;-47
2022/08/09 02:59:38;;;;;;;7.22;4.95;;;14.80;97.20;;;;;;5071612;28;20131;-45
2022/08/09 03:02:05;;;;;;;7.68;5.40;;;14.70;97.00;;;;;;5069426;28;20132;-47
2022/08/09 03:04:32;;;;;;;8.18;5.70;;;14.70;97.10;;;;;;5052788;28;20393;-46
2022/08/09 03:07:01;;;;;;;5.05;4.55;;;14.70;97.50;;;;;;5067759;28;20080;-46
2022/08/09 03:09:28;;;;;;;7.50;5.60;;;14.70;97.30;;;;;;5071738;28;20090;-50
2022/08/09 03:11:56;;;;;;;5.80;5.20;;;14.70;97.40;;;;;;5069170;28;20128;-50
2022/08/09 03:14:23;;;;;;;5.50;4.82;;;14.70;97.40;;;;;;5069605;28;20508;-49
2022/08/09 03:16:49;;;;;;;9.35;5.50;;;14.70;97.30;;;;;;5068512;28;20522;-49
2022/08/09 03:19:16;;;;;;;9.98;6.10;;;14.70;97.50;;;;;;5061450;28;20052;-48
2022/08/09 03:21:43;;;;;;;8.30;5.93;;;14.60;97.90;;;;;;5071642;28;20056;-48
2022/08/09 03:24:10;;;;;;;6.20;5.22;;;14.60;98.20;;;;;;5072491;28;20054;-47
2022/08/09 03:26:37;;;;;;;7.00;5.18;;;14.60;98.30;;;;;;5072517;28;20048;-45
2022/08/09 03:29:05;;;;;;;7.90;5.97;;;14.60;98.00;;;;;;5070821;28;20059;-51
2022/08/09 03:31:32;;;;;;;7.28;4.95;;;14.60;98.30;;;;;;5067633;28;20076;-50
2022/08/09 03:34:00;;;;;;;5.22;4.65;;;14.50;98.00;;;;;;5064269;28;20127;-50
2022/08/09 03:36:26;;;;;;;6.30;5.65;;;14.50;97.70;;;;;;5071742;28;20131;-51
2022/08/09 03:38:53;;;;;;;7.85;6.05;;;14.50;97.90;;;;;;5071319;28;20053;-51
2022/08/09 03:41:20;;;;;;;6.22;5.28;;;14.50;98.00;;;;;;5064348;28;20072;-48
2022/08/09 03:43:47;;;;;;;7.72;5.30;;;14.50;97.90;;;;;;5071005;28;20137;-46
2022/08/09 03:46:15;;;;;;;8.80;5.20;;;14.50;98.00;;;;;;5067436;28;20139;-42
2022/08/09 03:48:42;;;;;;;7.70;6.45;;;14.50;98.10;;;;;;5068494;28;20460;-48
2022/08/09 03:51:09;;;;;;;7.95;5.53;;;14.50;98.40;;;;;;5070002;28;20048;-48
2022/08/09 03:53:37;;;;;;;8.50;6.22;;;14.50;98.20;;;;;;5069851;28;20056;-47
2022/08/09 03:56:04;;;;;;;6.53;5.30;;;14.50;98.20;;;;;;5069080;28;20072;-47
2022/08/09 03:58:30;;;;;;;6.15;5.22;;;14.50;98.30;;;;;;5067130;28;20071;-45
2022/08/09 04:00:58;;;;;;;7.68;5.45;;;14.40;98.50;;;;;;5068833;28;20143;-49
2022/08/09 04:03:26;;;;;;;5.20;3.80;;;14.40;98.90;;;;;;5067483;28;20075;-46
2022/08/09 04:05:52;;;;;;;4.43;3.47;;;14.40;98.80;;;;;;5063823;28;20460;-52
2022/08/09 04:08:19;;;;;;;5.70;4.50;;;14.30;98.70;;;;;;5070380;28;20136;-47
2022/08/09 04:10:46;;;;;;;6.80;4.65;;;14.30;98.60;;;;;;5068225;28;20072;-49
2022/08/09 04:13:13;;;;;;;5.10;4.20;;;14.30;98.70;;;;;;5070267;28;20395;-47
2022/08/09 04:15:40;;;;;;;4.90;4.10;;;14.30;98.60;;;;;;5061705;28;20477;-51
2022/08/09 04:18:07;;;;;;;5.22;4.60;;;14.30;98.70;;;;;;5066388;28;20480;-41
2022/08/09 04:20:35;;;;;;;3.92;3.42;;;14.30;98.70;;;;;;5057411;28;20080;-51
2022/08/09 04:23:02;;;;;;;5.05;4.10;;;14.20;98.40;;;;;;5071829;28;20099;-50
2022/08/09 04:25:29;;;;;;;4.72;3.67;;;14.30;98.40;;;;;;5069745;28;20060;-46
2022/08/09 04:27:55;;;;;;;8.65;4.45;;;14.20;98.40;;;;;;5069446;28;20561;-49
2022/08/09 04:30:22;;;;;;;5.45;4.38;;;14.20;98.50;;;;;;5073416;28;20056;-46
2022/08/09 04:32:49;;;;;;;5.82;4.90;;;14.20;98.60;;;;;;5073247;28;20072;-51
2022/08/09 04:35:16;;;;;;;6.00;5.20;;;14.20;98.90;;;;;;5074306;28;20151;-42
2022/08/09 04:37:44;;;;;;;5.95;4.75;;;14.20;99.00;;;;;;5072385;28;20504;-50
2022/08/09 04:40:11;;;;;;;6.55;5.18;;;14.20;99.00;;;;;;5067345;28;20135;-44
2022/08/09 04:42:38;;;;;;;7.55;5.53;;;14.20;98.90;;;;;;5075367;28;20127;-51
2022/08/09 04:45:05;;;;;;;5.18;4.60;;;14.20;99.00;;;;;;5073661;28;20411;-49
2022/08/09 04:47:32;;;;;;;5.28;4.78;;;14.20;99.00;;;;;;5074558;28;20099;-46
2022/08/09 04:49:59;;;;;;;5.55;4.97;;;14.30;99.00;;;;;;5074445;28;20070;-49
2022/08/09 04:52:27;;;;;;;5.10;4.18;;;14.20;99.00;;;;;;5071127;28;20475;-50
2022/08/09 04:54:55;;;;;;;5.43;4.63;;;14.20;98.90;;;;;;5074071;28;20123;-46
2022/08/09 04:57:22;;;;;;;4.57;3.38;;;14.20;99.00;;;;;;5073192;28;20573;-49
2022/08/09 04:59:49;;;;;;;4.40;3.53;;;14.20;98.80;;;;;;5073263;28;20148;-47
2022/08/09 05:02:16;;;;;;;4.20;3.80;;;14.20;98.60;;;;;;5072209;28;20127;-49
2022/08/09 05:04:43;;;;;;;3.92;3.55;;;14.20;98.90;;;;;;5074802;28;20135;-52
2022/08/09 05:07:10;;;;;;;4.88;3.53;;;14.20;98.80;;;;;;5073847;28;20098;-48
2022/08/09 05:09:36;;;;;;;4.07;3.45;;;14.20;99.00;;;;;;5072213;28;20084;-47
2022/08/09 05:12:05;;;;;;;4.13;3.63;;;14.20;98.90;;;;;;5064643;28;20139;-49
2022/08/09 05:14:32;;;;;;;5.85;5.22;;;14.20;98.90;;;;;;5073154;28;20544;-49
2022/08/09 05:16:59;;;;;;;4.65;4.10;;;14.20;99.00;;;;;;5060889;28;20045;-51
2022/08/09 05:19:28;;;;;;;5.28;4.13;;;14.20;99.10;;;;;;5069108;28;20048;-51
2022/08/09 05:21:55;;;;;;;5.68;4.82;;;14.20;99.00;;;;;;5073578;28;20083;-51
2022/08/09 05:24:22;;;;;;;4.05;3.60;;;14.30;99.10;;;;;;5072657;28;20052;-47
2022/08/09 05:26:48;;;;;;;5.25;4.63;;;14.30;99.20;;;;;;5074623;28;20074;-51
2022/08/09 05:29:18;;;;;;;10.23;6.38;;;14.30;99.60;;;;;;5073355;28;20239;-50
2022/08/09 05:31:45;;;;;;;8.02;5.90;;;14.30;99.90;;;;;;5072125;28;20048;-47
2022/08/09 05:34:13;;;;;;;8.15;5.50;;;14.30;99.90;;;;;;5072205;28;20053;-51
2022/08/09 05:36:39;;;;;;;6.72;5.35;;;14.40;99.90;;;;;;5072921;28;20377;-47
2022/08/09 05:39:06;;;;;;;8.43;4.70;;;14.40;99.90;;;;;;5072039;28;20125;-45
2022/08/09 05:41:33;;;;;;;6.20;5.35;;;14.50;99.90;;;;;;5063759;28;20139;-50
2022/08/09 05:44:00;;;;;;;7.35;4.80;;;14.50;99.90;;;;;;5070104;28;20403;-47
2022/08/09 05:46:28;;;;;;;6.60;5.68;;;14.50;99.90;;;;;;5054839;28;20059;-46
2022/08/09 05:48:55;;;;;;;6.82;5.82;;;14.70;99.90;;;;;;5052455;28;20091;-45
2022/08/09 05:51:21;;;;;;;8.98;6.57;;;14.70;99.90;;;;;;5071775;28;20052;-43
2022/08/09 05:53:49;;;;;;;8.35;4.75;;;14.80;99.90;;;;;;5057751;28;20089;-47
2022/08/09 05:56:16;;;;;;;5.82;5.07;;;15.00;99.90;;;;;;5056109;28;20044;-50
2022/08/09 05:58:42;;;;;;;8.50;5.82;;;15.00;99.90;;;;;;5061293;28;20044;-46
2022/08/09 06:01:10;;;;;;;11.20;6.40;;;15.20;99.90;;;;;;5061884;28;20102;-48
2022/08/09 06:03:38;;;;;;;12.07;7.60;;;15.30;99.90;;;;;;5069867;28;20040;-48
2022/08/09 06:06:05;;;;;;;12.73;8.32;;;15.50;99.90;;;;;;5065917;28;20910;-51
2022/08/09 06:08:32;;;;;;;11.05;7.75;;;15.60;99.90;;;;;;5071417;28;20053;-47
2022/08/09 06:10:58;;;;;;;12.13;8.10;;;15.80;99.90;;;;;;5070000;28;20056;-47
2022/08/09 06:13:26;;;;;;;17.67;8.93;;;15.90;99.90;;;;;;5071371;28;20105;-49
2022/08/09 06:15:52;;;;;;;13.35;7.97;;;16.00;99.90;;;;;;5071914;28;20044;-47
2022/08/09 06:18:20;;;;;;;10.80;7.55;;;16.20;99.90;;;;;;5068893;28;20097;-44
2022/08/09 06:20:48;;;;;;;15.63;9.25;;;16.40;99.90;;;;;;5070311;28;20466;-48
2022/08/09 06:23:15;;;;;;;13.18;8.10;;;16.50;99.90;;;;;;5067395;28;20152;-52
2022/08/09 06:25:41;;;;;;;13.90;8.45;;;16.70;99.90;;;;;;5070213;28;20148;-51
2022/08/09 06:28:08;;;;;;;16.80;7.68;;;16.80;99.90;;;;;;5069063;28;20110;-45
2022/08/09 06:30:35;;;;;;;16.73;8.02;;;17.00;99.90;;;;;;5069281;28;20135;-42
2022/08/09 06:33:01;;;;;;;12.90;8.20;;;17.00;99.90;;;;;;5071165;28;20062;-48
2022/08/09 06:35:28;;;;;;;15.35;7.65;;;17.20;99.90;;;;;;5067100;28;20144;-49
2022/08/09 06:37:56;;;;;;;9.48;6.57;;;17.30;99.90;;;;;;5070585;28;20095;-45
2022/08/09 06:40:23;;;;;;;9.65;5.90;;;17.50;99.90;;;;;;5065686;28;20127;-49
2022/08/09 06:42:50;;;;;;;10.95;5.00;;;17.60;99.90;;;;;;5072147;28;20127;-50
2022/08/09 06:45:17;;;;;;;12.20;5.45;;;17.70;99.90;;;;;;5065435;28;20448;-49
2022/08/09 06:47:44;;;;;;;9.07;5.05;;;17.80;99.90;;;;;;5060576;28;20377;-48
2022/08/09 06:50:10;;;;;;;11.02;4.75;;;17.90;99.90;;;;;;5070147;28;20053;-47
2022/08/09 06:52:38;;;;;;;9.48;4.97;;;18.00;99.90;;;;;;5069820;28;20090;-48
2022/08/09 06:55:07;;;;;;;8.50;4.43;;;18.10;99.90;;;;;;5071058;28;20478;-44
2022/08/09 06:57:34;;;;;;;7.25;4.28;;;18.30;99.90;;;;;;5062601;28;20045;-51
2022/08/09 07:00:01;;;;;;;6.50;4.18;;;18.50;99.90;;;;;;5050748;28;20049;-49
2022/08/09 07:02:28;;;;;;;8.95;3.97;;;18.60;99.90;;;;;;5064278;28;20139;-39
2022/08/09 07:04:54;;;;;;;8.13;4.15;;;18.70;99.90;;;;;;5069145;28;20131;-47
2022/08/09 07:07:21;;;;;;;7.85;4.30;;;18.80;99.90;;;;;;5070906;28;20048;-47
2022/08/09 07:09:49;;;;;;;8.02;3.47;;;18.90;99.90;;;;;;5070883;28;20084;-51
2022/08/09 07:12:17;;;;;;;4.88;2.83;;;19.10;99.90;;;;;;5070834;28;20059;-48
2022/08/09 07:14:44;;;;;;;6.07;2.80;;;19.20;99.90;;;;;;5060333;28;20079;-48
2022/08/09 07:17:11;;;;;;;5.75;2.83;;;19.30;99.90;;;;;;5070727;28;20051;-47
2022/08/09 07:19:37;;;;;;;7.35;3.08;;;19.30;99.90;;;;;;5071426;28;20048;-51
2022/08/09 07:22:04;;;;;;;5.78;2.95;;;19.40;99.80;;;;;;5071800;28;20052;-47
2022/08/09 07:24:31;;;;;;;7.18;3.13;;;19.50;99.30;;;;;;5071775;28;20048;-50
2022/08/09 07:26:58;;;;;;;7.75;3.33;;;19.60;99.20;;;;;;5071364;28;20054;-50
2022/08/09 07:29:26;;;;;;;5.40;3.42;;;19.70;99.10;;;;;;5071335;28;20138;-50
2022/08/09 07:31:53;;;;;;;6.80;3.25;;;19.80;98.80;;;;;;5068093;28;20048;-47
2022/08/09 07:34:20;;;;;;;4.78;3.08;;;19.90;98.90;;;;;;5060931;28;20106;-46
2022/08/09 07:36:46;;;;;;;9.27;2.72;;;20.10;98.60;;;;;;5068854;28;20136;-51
2022/08/09 07:39:13;;;;;;;7.28;3.03;;;20.20;98.20;;;;;;5058593;28;20127;-51
2022/08/09 07:41:40;;;;;;;6.03;2.30;;;20.30;97.90;;;;;;5068170;28;20079;-45
2022/08/09 07:44:07;;;;;;;10.48;2.40;;;20.40;97.50;;;;;;5057037;28;20099;-51
2022/08/09 07:46:35;;;;;;;5.10;2.10;;;20.60;97.30;;;;;;5061695;28;20131;-52
2022/08/09 07:49:01;;;;;;;6.38;2.13;;;20.70;97.20;;;;;;5062294;28;20128;-47
2022/08/09 07:51:28;;;;;;;9.05;2.00;;;20.80;96.90;;;;;;5057122;28;20132;-52
2022/08/09 07:53:55;;;;;;;4.28;1.45;;;20.90;96.70;;;;;;5069853;28;20045;-51
2022/08/09 07:56:22;;;;;;;3.13;1.42;;;21.10;96.30;;;;;;5063567;28;20587;-52
2022/08/09 07:58:48;;;;;;;4.15;1.65;;;21.20;96.00;;;;;;5059683;28;20052;-48
2022/08/09 08:01:15;;;;;;;3.20;1.42;;;21.30;95.40;;;;;;5065907;28;20144;-51
2022/08/09 08:03:43;;;;;;;2.65;1.30;;;21.40;95.40;;;;;;5059344;28;20077;-42
2022/08/09 08:06:10;;;;;;;3.42;1.67;;;21.60;95.10;;;;;;5070077;28;20124;-50
2022/08/09 08:08:37;;;;;;;5.80;1.33;;;21.70;94.60;;;;;;5063508;28;20549;-46
2022/08/09 08:11:03;;;;;;;2.45;1.08;;;21.80;94.10;;;;;;5066996;28;20083;-52
2022/08/09 08:13:30;;;;;;;3.35;1.10;;;21.80;93.70;;;;;;5060446;28;20056;-48
2022/08/09 08:15:57;;;;;;;2.42;1.33;;;21.80;93.50;;;;;;5066798;28;20076;-47
2022/08/09 08:18:24;;;;;;;4.15;1.30;;;22.00;93.30;;;;;;5062362;28;20076;-51
2022/08/09 08:20:52;;;;;;;3.67;1.00;;;22.10;93.00;;;;;;5059461;28;20054;-53
2022/08/09 08:23:19;;;;;;;4.15;1.10;;;22.20;93.00;;;;;;5060444;28;20044;-47
2022/08/09 08:25:46;;;;;;;2.22;1.08;;;22.30;92.70;;;;;;5067513;28;20614;-51
2022/08/09 08:28:13;;;;;;;3.58;1.02;;;22.40;92.70;;;;;;5066945;28;20523;-50
2022/08/09 08:30:40;;;;;;;3.10;1.25;;;22.50;92.50;;;;;;5070335;28;20488;-50
2022/08/09 08:33:07;;;;;;;2.90;1.10;;;22.40;92.00;;;;;;5071193;28;20463;-46
2022/08/09 08:35:34;;;;;;;4.70;1.20;;;22.30;92.00;;;;;;5062659;28;20080;-50
2022/08/09 08:38:02;;;;;;;2.13;1.10;;;22.30;92.20;;;;;;5068984;28;20050;-50
2022/08/09 08:40:29;;;;;;;2.97;1.05;;;22.20;92.10;;;;;;5066628;28;20110;-51
2022/08/09 08:42:56;;;;;;;2.45;1.30;;;22.20;91.90;;;;;;5069139;28;20123;-47
2022/08/09 08:45:26;;;;;;;1.80;0.77;;;22.10;92.00;;;;;;5062282;28;20110;-47
2022/08/09 08:47:53;;;;;;;2.97;1.27;;;22.10;92.00;;;;;;5071065;28;20052;-51
2022/08/09 08:50:20;;;;;;;9.52;2.25;;;22.10;91.80;;;;;;5066759;28;20102;-46
2022/08/09 08:52:46;;;;;;;4.72;1.17;;;22.10;91.80;;;;;;5069836;28;20056;-49
2022/08/09 08:55:15;;;;;;;4.38;1.20;;;22.10;91.70;;;;;;5072313;28;20053;-48
2022/08/09 08:57:42;;;;;;;2.08;0.80;;;22.10;91.60;;;;;;5073274;28;20049;-41
2022/08/09 09:00:10;;;;;;;4.38;0.80;;;22.10;91.80;;;;;;5072401;28;20056;-51
2022/08/09 09:02:37;;;;;;;2.97;0.93;;;22.30;91.80;;;;;;5070597;28;20136;-52
2022/08/09 09:05:04;;;;;;;0.93;0.77;;;22.70;91.20;;;;;;5072835;28;20136;-49
2022/08/09 09:07:31;;;;;;;3.28;0.93;;;22.90;90.90;;;;;;5073869;28;20135;-52
2022/08/09 09:09:58;;;;;;;2.33;0.88;;;23.10;90.10;;;;;;5074006;28;20049;-51
2022/08/09 09:12:26;;;;;;;1.80;0.85;;;23.40;89.80;;;;;;5072956;28;20104;-48
2022/08/09 09:14:53;;;;;;;9.57;1.30;;;23.50;89.10;;;;;;5073203;28;20564;-46
2022/08/09 09:17:20;;;;;;;36.05;4.65;;;23.60;88.40;;;;;;5072693;28;20519;-51
2022/08/09 09:19:47;;;;;;;3.60;0.98;;;23.70;87.80;;;;;;5072928;28;20094;-48
2022/08/09 09:22:14;;;;;;;2.70;0.70;;;23.90;87.20;;;;;;5069638;28;20052;-54
2022/08/09 09:24:42;;;;;;;1.67;0.60;;;24.00;85.70;;;;;;5072396;28;20057;-53
2022/08/09 09:27:10;;;;;;;4.40;0.80;;;24.10;85.30;;;;;;5070977;28;20092;-51
2022/08/09 09:29:39;;;;;;;4.07;0.80;;;24.20;85.70;;;;;;5072414;28;20052;-53
2022/08/09 09:32:06;;;;;;;3.42;0.90;;;24.30;85.10;;;;;;5070857;28;20087;-49
2022/08/09 09:34:33;;;;;;;2.45;0.57;;;24.50;84.40;;;;;;5072616;28;20048;-49
2022/08/09 09:37:00;;;;;;;2.40;0.90;;;24.60;83.50;;;;;;5071569;28;20060;-54
2022/08/09 09:39:27;;;;;;;5.47;0.70;;;24.70;84.10;;;;;;5073247;28;20059;-53
2022/08/09 09:41:55;;;;;;;2.70;0.70;;;24.90;83.50;;;;;;5056958;28;20601;-49
2022/08/09 09:44:27;;;;;;;3.00;0.80;;;25.10;82.20;;;;;;5052027;28;20091;-52
2022/08/09 09:47:05;;;;;;;1.40;0.70;;;25.30;82.10;;;;;;5053160;28;20183;-50
2022/08/09 09:49:32;;;;;;;0.88;0.55;;;25.50;78.80;;;;;;5063546;28;20136;-53
2022/08/09 09:52:02;;;;;;;1.52;0.60;;;25.50;79.70;;;;;;5071607;28;20144;-52
2022/08/09 09:54:35;;;;;;;2.25;0.60;;;25.50;79.80;;;;;;5088959;28;20084;-53
2022/08/09 09:57:14;;;;;;;6.65;1.52;;;25.50;77.80;;;;;;5071631;28;20055;-52
2022/08/09 09:59:41;;;;;;;1.75;0.60;;;25.60;79.20;;;;;;5070878;28;20049;-44
2022/08/09 10:02:09;;;;;;;2.17;0.60;;;25.70;77.40;;;;;;5055994;28;20136;-50
2022/08/09 10:04:36;;;;;;;1.33;0.50;;;25.70;77.40;;;;;;5052894;28;20056;-50
2022/08/09 10:07:03;;;;;;;2.95;0.70;;;25.80;77.60;;;;;;5058217;28;20382;-53
2022/08/09 10:09:47;;;;;;;1.15;0.60;;;25.90;77.10;;;;;;5054466;28;20048;-48
2022/08/09 10:12:22;;;;;;;2.58;0.50;;;26.10;76.60;;;;;;5067268;28;20056;-53
2022/08/09 10:14:49;;;;;;;1.65;0.50;;;26.10;75.80;;;;;;5072202;28;20050;-52
2022/08/09 10:17:18;;;;;;;1.15;0.40;;;26.20;75.50;;;;;;5073450;28;20135;-51
2022/08/09 10:19:45;;;;;;;2.60;0.70;;;26.30;75.40;;;;;;5070681;28;20428;-54
2022/08/09 10:22:11;;;;;;;1.15;0.50;;;26.40;75.30;;;;;;5070038;28;20059;-54
2022/08/09 10:24:39;;;;;;;0.85;0.47;;;26.60;74.40;;;;;;5071776;28;20053;-53
2022/08/09 10:27:06;;;;;;;0.50;0.50;;;26.80;73.80;;;;;;5069837;28;20143;-48
2022/08/09 10:29:33;;;;;;;1.48;0.50;;;26.90;73.40;;;;;;5053397;28;20049;-52
2022/08/09 10:32:00;;;;;;;0.60;0.50;;;27.10;72.90;;;;;;5052158;28;20059;-53
2022/08/09 10:34:28;;;;;;;0.90;0.50;;;27.20;71.80;;;;;;5053189;28;20527;-55
2022/08/09 10:36:56;;;;;;;0.43;0.35;;;27.30;72.20;;;;;;5056435;28;20531;-53
2022/08/09 10:39:23;;;;;;;1.75;0.60;;;27.40;71.70;;;;;;5070310;28;20136;-53
2022/08/09 10:41:50;;;;;;;0.65;0.50;;;27.50;71.30;;;;;;5070737;28;20135;-54
2022/08/09 10:44:19;;;;;;;1.25;0.50;;;27.60;71.30;;;;;;5073192;28;20065;-54
2022/08/09 10:47:18;;;;;;;2.75;0.52;;;27.70;70.60;;;;;;5072896;28;20045;-46
2022/08/09 10:49:48;;;;;;;0.70;0.30;;;27.80;68.90;;;;;;5046235;28;20399;-55
2022/08/09 10:52:24;;;;;;;1.00;0.50;;;27.80;68.10;;;;;;5069920;28;20060;-55
2022/08/09 10:54:52;;;;;;;2.30;0.60;;;27.90;67.90;;;;;;5072962;28;20393;-55
2022/08/09 10:57:19;;;;;;;0.68;0.40;;;27.90;67.50;;;;;;5068463;28;20048;-52
2022/08/09 10:59:45;;;;;;;0.70;0.50;;;27.90;67.10;;;;;;5071690;28;20057;-55
2022/08/09 11:02:15;;;;;;;0.93;0.60;;;27.80;67.50;;;;;;5072829;28;20127;-55
2022/08/09 11:04:42;;;;;;;1.52;0.80;;;27.90;68.70;;;;;;5072898;28;20088;-55
2022/08/09 11:07:29;;;;;;;0.45;0.40;;;28.00;67.40;;;;;;5072977;28;20499;-54
2022/08/09 11:09:56;;;;;;;0.50;0.50;;;28.20;66.90;;;;;;5071959;28;20048;-56
2022/08/09 11:12:23;;;;;;;1.17;0.50;;;28.20;66.30;;;;;;5071741;28;20147;-55
2022/08/09 11:14:53;;;;;;;2.25;0.60;;;28.20;66.10;;;;;;5057358;28;20067;-55
2022/08/09 11:17:51;;;;;;;1.07;0.80;;;28.30;66.10;;;;;;5068337;28;20064;-53
2022/08/09 11:20:21;;;;;;;1.95;0.65;;;28.40;66.60;;;;;;5070446;28;20107;-54
2022/08/09 11:23:02;;;;;;;0.70;0.40;;;28.40;66.30;;;;;;5072681;28;20052;-54
2022/08/09 11:25:40;;;;;;;2.05;0.60;;;28.40;64.20;;;;;;5070943;28;20044;-53
2022/08/09 11:28:35;;;;;;;3.55;0.68;;;28.30;64.90;;;;;;5071653;28;20087;-54
2022/08/09 11:31:03;;;;;;;1.35;0.70;;;28.40;66.70;;;;;;5037220;28;20407;-55
2022/08/09 11:33:37;;;;;;;11.57;1.20;;;28.60;65.80;;;;;;5072377;28;20040;-55
2022/08/09 11:36:04;;;;;;;5.15;0.70;;;28.80;64.90;;;;;;5071471;28;20106;-55
2022/08/09 11:38:33;;;;;;;1.85;0.60;;;28.80;64.70;;;;;;5073136;28;20135;-53
2022/08/09 11:41:03;;;;;;;1.30;0.52;;;28.90;64.70;;;;;;5074138;28;20080;-54
2022/08/09 11:43:48;;;;;;;1.23;0.60;;;29.00;63.90;;;;;;5076523;28;20102;-54
2022/08/09 11:46:15;;;;;;;0.93;0.55;;;29.20;64.40;;;;;;5076337;28;20063;-54
2022/08/09 11:48:48;;;;;;;1.02;0.47;;;29.20;63.70;;;;;;5075755;28;20080;-55
2022/08/09 11:51:15;;;;;;;0.80;0.52;;;29.20;63.40;;;;;;5076208;28;20327;-54
2022/08/09 11:53:43;;;;;;;0.77;0.50;;;29.30;63.70;;;;;;5074843;28;20102;-55
2022/08/09 11:56:26;;;;;;;3.78;0.60;;;29.40;63.10;;;;;;5075153;28;20131;-50
2022/08/09 11:58:53;;;;;;;2.33;0.80;;;29.60;64.00;;;;;;5074949;28;20048;-55
2022/08/09 12:01:30;;;;;;;21.80;2.67;;;29.60;62.60;;;;;;5074213;28;20057;-55
2022/08/09 12:03:58;;;;;;;3.58;1.00;;;29.70;61.90;;;;;;5076155;28;20084;-54
2022/08/09 12:06:25;;;;;;;3.15;0.70;;;29.70;63.00;;;;;;5076138;28;20059;-46
2022/08/09 12:08:54;;;;;;;0.88;0.50;;;29.70;61.80;;;;;;5074672;28;20499;-53
2022/08/09 12:11:22;;;;;;;2.80;1.08;;;29.70;62.00;;;;;;5074878;28;20135;-55
2022/08/09 12:13:49;;;;;;;1.10;0.65;;;29.70;61.70;;;;;;5067847;28;20555;-49
2022/08/09 12:16:18;;;;;;;2.15;0.52;;;29.80;61.10;;;;;;5054868;28;20053;-55
2022/08/09 12:18:47;;;;;;;1.10;0.60;;;29.70;62.10;;;;;;5064757;28;20058;-53
2022/08/09 12:21:23;;;;;;;1.80;0.52;;;29.80;62.20;;;;;;5071720;28;20127;-49
2022/08/09 12:23:50;;;;;;;2.55;0.80;;;30.00;61.20;;;;;;5074706;28;20060;-54
2022/08/09 12:26:18;;;;;;;0.80;0.60;;;30.10;60.80;;;;;;5074481;28;20063;-52
2022/08/09 12:28:47;;;;;;;2.78;0.90;;;30.10;60.60;;;;;;5075365;28;20058;-53
2022/08/09 12:31:18;;;;;;;1.42;0.70;;;30.20;60.40;;;;;;5074937;28;20048;-53
2022/08/09 12:33:45;;;;;;;0.70;0.50;;;30.30;60.00;;;;;;5075541;28;20063;-55
2022/08/09 12:36:12;;;;;;;0.63;0.52;;;30.30;60.10;;;;;;5075426;28;20087;-55
2022/08/09 12:38:38;;;;;;;11.57;2.38;;;30.50;60.60;;;;;;5075323;28;20054;-55
2022/08/09 12:41:05;;;;;;;7.45;1.02;;;30.70;61.10;;;;;;5074272;28;20139;-50
2022/08/09 12:43:33;;;;;;;2.97;0.60;;;30.80;59.30;;;;;;5074391;28;20084;-54
2022/08/09 12:46:00;;;;;;;2.13;0.82;;;30.80;60.20;;;;;;5074202;28;20090;-53
2022/08/09 12:48:27;;;;;;;3.03;0.80;;;30.90;60.90;;;;;;5074341;28;20048;-53
2022/08/09 12:50:54;;;;;;;1.00;0.63;;;30.90;60.00;;;;;;5073308;28;20415;-53